sensor_id;sensor_type;location;lat;lon;timestamp;P1;durP1;ratioP1;P2;durP2;ratioP2
434;SDS011;204;48.942;9.256;2023-07-28T00:00:47;6.23;;;5.90;;
434;SDS011;204;48.942;9.256;2023-07-28T00:03:13;7.83;;;6.23;;
434;SDS011;204;48.942;9.256;2023-07-28T00:05:38;8.60;;;5.67;;
434;SDS011;204;48.942;9.256;2023-07-28T00:08:04;5.97;;;5.43;;
434;SDS011;204;48.942;9.256;2023-07-28T00:10:29;6.63;;;6.23;;
434;SDS011;204;48.942;9.256;2023-07-28T00:12:55;5.83;;;5.53;;
434;SDS011;204;48.942;9.256;2023-07-28T00:15:21;6.97;;;5.80;;
434;SDS011;204;48.942;9.256;2023-07-28T00:17:47;5.73;;;5.43;;
434;SDS011;204;48.942;9.256;2023-07-28T00:20:12;5.80;;;5.50;;
434;SDS011;204;48.942;9.256;2023-07-28T00:22:38;8.43;;;6.00;;
434;SDS011;204;48.942;9.256;2023-07-28T00:25:03;6.17;;;5.87;;
434;SDS011;204;48.942;9.256;2023-07-28T00:27:29;7.27;;;6.57;;
434;SDS011;204;48.942;9.256;2023-07-28T00:29:55;6.70;;;6.30;;
434;SDS011;204;48.942;9.256;2023-07-28T00:32:20;7.10;;;5.90;;
434;SDS011;204;48.942;9.256;2023-07-28T00:34:46;6.40;;;6.00;;
434;SDS011;204;48.942;9.256;2023-07-28T00:37:12;6.70;;;6.17;;
434;SDS011;204;48.942;9.256;2023-07-28T00:39:37;5.33;;;5.00;;
434;SDS011;204;48.942;9.256;2023-07-28T00:42:03;6.03;;;5.23;;
434;SDS011;204;48.942;9.256;2023-07-28T00:44:29;9.30;;;5.73;;
434;SDS011;204;48.942;9.256;2023-07-28T00:46:54;6.10;;;5.30;;
434;SDS011;204;48.942;9.256;2023-07-28T00:49:21;6.00;;;5.70;;
434;SDS011;204;48.942;9.256;2023-07-28T00:51:46;5.27;;;4.97;;
434;SDS011;204;48.942;9.256;2023-07-28T00:54:14;6.70;;;5.40;;
434;SDS011;204;48.942;9.256;2023-07-28T00:56:40;6.30;;;5.90;;
434;SDS011;204;48.942;9.256;2023-07-28T00:59:05;8.63;;;6.13;;
434;SDS011;204;48.942;9.256;2023-07-28T01:01:31;5.60;;;5.30;;
434;SDS011;204;48.942;9.256;2023-07-28T01:03:56;5.83;;;4.93;;
434;SDS011;204;48.942;9.256;2023-07-28T01:06:32;5.90;;;5.43;;
434;SDS011;204;48.942;9.256;2023-07-28T01:09:21;6.33;;;5.57;;
434;SDS011;204;48.942;9.256;2023-07-28T01:11:54;5.60;;;5.30;;
434;SDS011;204;48.942;9.256;2023-07-28T01:14:21;5.30;;;5.00;;
434;SDS011;204;48.942;9.256;2023-07-28T01:16:47;6.20;;;5.87;;
434;SDS011;204;48.942;9.256;2023-07-28T01:19:12;5.10;;;4.73;;
434;SDS011;204;48.942;9.256;2023-07-28T01:21:41;6.97;;;6.57;;
434;SDS011;204;48.942;9.256;2023-07-28T01:26:54;5.97;;;5.70;;
434;SDS011;204;48.942;9.256;2023-07-28T01:29:21;5.53;;;5.23;;
434;SDS011;204;48.942;9.256;2023-07-28T01:31:47;6.40;;;6.03;;
434;SDS011;204;48.942;9.256;2023-07-28T01:34:13;7.57;;;5.30;;
434;SDS011;204;48.942;9.256;2023-07-28T01:36:39;5.87;;;5.57;;
434;SDS011;204;48.942;9.256;2023-07-28T01:39:04;5.83;;;5.53;;
434;SDS011;204;48.942;9.256;2023-07-28T01:41:30;5.87;;;5.57;;
434;SDS011;204;48.942;9.256;2023-07-28T01:43:56;6.03;;;5.63;;
434;SDS011;204;48.942;9.256;2023-07-28T01:46:22;6.07;;;5.77;;
434;SDS011;204;48.942;9.256;2023-07-28T01:48:48;6.37;;;5.80;;
434;SDS011;204;48.942;9.256;2023-07-28T01:51:13;6.90;;;6.47;;
434;SDS011;204;48.942;9.256;2023-07-28T01:53:39;8.53;;;5.87;;
434;SDS011;204;48.942;9.256;2023-07-28T01:56:05;7.40;;;6.00;;
434;SDS011;204;48.942;9.256;2023-07-28T01:58:30;7.40;;;6.50;;
434;SDS011;204;48.942;9.256;2023-07-28T02:00:56;6.50;;;6.10;;
434;SDS011;204;48.942;9.256;2023-07-28T02:03:21;6.20;;;5.90;;
434;SDS011;204;48.942;9.256;2023-07-28T02:05:47;7.27;;;6.87;;
434;SDS011;204;48.942;9.256;2023-07-28T02:08:13;5.73;;;5.43;;
434;SDS011;204;48.942;9.256;2023-07-28T02:10:39;6.77;;;6.10;;
434;SDS011;204;48.942;9.256;2023-07-28T02:13:04;7.23;;;6.20;;
434;SDS011;204;48.942;9.256;2023-07-28T02:15:30;6.07;;;5.63;;
434;SDS011;204;48.942;9.256;2023-07-28T02:17:55;7.43;;;6.33;;
434;SDS011;204;48.942;9.256;2023-07-28T02:20:21;7.13;;;6.27;;
434;SDS011;204;48.942;9.256;2023-07-28T02:22:46;7.23;;;6.43;;
434;SDS011;204;48.942;9.256;2023-07-28T02:25:12;7.73;;;6.23;;
434;SDS011;204;48.942;9.256;2023-07-28T02:27:38;7.63;;;6.60;;
434;SDS011;204;48.942;9.256;2023-07-28T02:30:04;7.30;;;6.90;;
434;SDS011;204;48.942;9.256;2023-07-28T02:32:30;7.43;;;6.50;;
434;SDS011;204;48.942;9.256;2023-07-28T02:34:56;8.33;;;6.73;;
434;SDS011;204;48.942;9.256;2023-07-28T02:37:22;6.50;;;6.03;;
434;SDS011;204;48.942;9.256;2023-07-28T02:39:48;7.10;;;5.90;;
434;SDS011;204;48.942;9.256;2023-07-28T02:42:13;7.37;;;5.80;;
434;SDS011;204;48.942;9.256;2023-07-28T02:44:39;6.70;;;6.03;;
434;SDS011;204;48.942;9.256;2023-07-28T02:47:05;8.60;;;5.67;;
434;SDS011;204;48.942;9.256;2023-07-28T02:49:30;6.27;;;5.93;;
434;SDS011;204;48.942;9.256;2023-07-28T02:51:56;7.93;;;5.97;;
434;SDS011;204;48.942;9.256;2023-07-28T02:54:21;7.67;;;6.33;;
434;SDS011;204;48.942;9.256;2023-07-28T02:56:49;6.37;;;6.00;;
434;SDS011;204;48.942;9.256;2023-07-28T02:59:14;6.53;;;6.13;;
434;SDS011;204;48.942;9.256;2023-07-28T03:01:40;7.93;;;6.27;;
434;SDS011;204;48.942;9.256;2023-07-28T03:04:05;7.33;;;6.33;;
434;SDS011;204;48.942;9.256;2023-07-28T03:06:31;7.10;;;5.70;;
434;SDS011;204;48.942;9.256;2023-07-28T03:08:58;11.90;;;7.03;;
434;SDS011;204;48.942;9.256;2023-07-28T03:11:23;5.93;;;5.63;;
434;SDS011;204;48.942;9.256;2023-07-28T03:13:49;7.10;;;6.70;;
434;SDS011;204;48.942;9.256;2023-07-28T03:16:14;7.60;;;6.00;;
434;SDS011;204;48.942;9.256;2023-07-28T03:18:40;6.40;;;6.03;;
434;SDS011;204;48.942;9.256;2023-07-28T03:21:06;6.90;;;6.50;;
434;SDS011;204;48.942;9.256;2023-07-28T03:23:33;6.50;;;5.97;;
434;SDS011;204;48.942;9.256;2023-07-28T03:25:58;7.10;;;6.70;;
434;SDS011;204;48.942;9.256;2023-07-28T03:28:24;6.87;;;5.53;;
434;SDS011;204;48.942;9.256;2023-07-28T03:30:49;6.90;;;6.50;;
434;SDS011;204;48.942;9.256;2023-07-28T03:33:15;5.83;;;5.53;;
434;SDS011;204;48.942;9.256;2023-07-28T03:35:40;7.50;;;6.70;;
434;SDS011;204;48.942;9.256;2023-07-28T03:38:06;6.23;;;5.73;;
434;SDS011;204;48.942;9.256;2023-07-28T03:40:32;7.23;;;6.13;;
434;SDS011;204;48.942;9.256;2023-07-28T03:42:57;6.37;;;5.77;;
434;SDS011;204;48.942;9.256;2023-07-28T03:45:23;6.57;;;6.17;;
434;SDS011;204;48.942;9.256;2023-07-28T03:47:48;6.50;;;6.10;;
434;SDS011;204;48.942;9.256;2023-07-28T03:50:14;6.60;;;6.20;;
434;SDS011;204;48.942;9.256;2023-07-28T03:52:40;6.63;;;6.23;;
434;SDS011;204;48.942;9.256;2023-07-28T03:55:05;6.53;;;6.13;;
434;SDS011;204;48.942;9.256;2023-07-28T03:57:31;6.23;;;5.90;;
434;SDS011;204;48.942;9.256;2023-07-28T03:59:57;6.70;;;6.27;;
434;SDS011;204;48.942;9.256;2023-07-28T04:02:22;7.50;;;7.10;;
434;SDS011;204;48.942;9.256;2023-07-28T04:04:53;7.50;;;6.57;;
434;SDS011;204;48.942;9.256;2023-07-28T04:07:19;7.87;;;6.80;;
434;SDS011;204;48.942;9.256;2023-07-28T04:09:45;6.13;;;5.83;;
434;SDS011;204;48.942;9.256;2023-07-28T04:12:11;6.60;;;6.20;;
434;SDS011;204;48.942;9.256;2023-07-28T04:14:36;6.60;;;6.20;;
434;SDS011;204;48.942;9.256;2023-07-28T04:17:02;7.47;;;6.60;;
434;SDS011;204;48.942;9.256;2023-07-28T04:19:27;8.47;;;6.07;;
434;SDS011;204;48.942;9.256;2023-07-28T04:21:54;5.97;;;5.63;;
434;SDS011;204;48.942;9.256;2023-07-28T04:24:21;6.60;;;6.20;;
434;SDS011;204;48.942;9.256;2023-07-28T04:26:47;5.90;;;5.60;;
434;SDS011;204;48.942;9.256;2023-07-28T04:29:15;7.90;;;6.70;;
434;SDS011;204;48.942;9.256;2023-07-28T04:31:40;8.30;;;5.80;;
434;SDS011;204;48.942;9.256;2023-07-28T04:34:06;6.23;;;5.90;;
434;SDS011;204;48.942;9.256;2023-07-28T04:36:31;8.50;;;5.90;;
434;SDS011;204;48.942;9.256;2023-07-28T04:38:57;7.00;;;6.23;;
434;SDS011;204;48.942;9.256;2023-07-28T04:41:23;7.40;;;5.97;;
434;SDS011;204;48.942;9.256;2023-07-28T04:43:48;6.60;;;5.70;;
434;SDS011;204;48.942;9.256;2023-07-28T04:46:14;6.10;;;5.80;;
434;SDS011;204;48.942;9.256;2023-07-28T04:48:40;7.63;;;7.00;;
434;SDS011;204;48.942;9.256;2023-07-28T04:51:05;6.70;;;6.30;;
434;SDS011;204;48.942;9.256;2023-07-28T04:53:31;8.10;;;6.50;;
434;SDS011;204;48.942;9.256;2023-07-28T04:55:56;6.83;;;6.07;;
434;SDS011;204;48.942;9.256;2023-07-28T04:58:22;6.40;;;6.00;;
434;SDS011;204;48.942;9.256;2023-07-28T05:00:47;7.00;;;6.60;;
434;SDS011;204;48.942;9.256;2023-07-28T05:03:13;7.40;;;7.00;;
434;SDS011;204;48.942;9.256;2023-07-28T05:05:38;7.83;;;6.50;;
434;SDS011;204;48.942;9.256;2023-07-28T05:08:08;7.07;;;6.67;;
434;SDS011;204;48.942;9.256;2023-07-28T05:10:33;10.93;;;6.53;;
434;SDS011;204;48.942;9.256;2023-07-28T05:12:59;6.90;;;6.50;;
434;SDS011;204;48.942;9.256;2023-07-28T05:15:24;10.13;;;6.20;;
434;SDS011;204;48.942;9.256;2023-07-28T05:17:50;6.80;;;6.40;;
434;SDS011;204;48.942;9.256;2023-07-28T05:20:15;6.47;;;6.10;;
434;SDS011;204;48.942;9.256;2023-07-28T05:22:41;7.93;;;5.67;;
434;SDS011;204;48.942;9.256;2023-07-28T05:25:07;8.00;;;6.30;;
434;SDS011;204;48.942;9.256;2023-07-28T05:27:32;10.10;;;6.87;;
434;SDS011;204;48.942;9.256;2023-07-28T05:29:58;12.10;;;5.93;;
434;SDS011;204;48.942;9.256;2023-07-28T05:32:24;8.53;;;7.33;;
434;SDS011;204;48.942;9.256;2023-07-28T05:34:49;10.47;;;7.47;;
434;SDS011;204;48.942;9.256;2023-07-28T05:37:15;9.50;;;7.07;;
434;SDS011;204;48.942;9.256;2023-07-28T05:39:40;6.77;;;6.37;;
434;SDS011;204;48.942;9.256;2023-07-28T05:42:06;6.07;;;5.77;;
434;SDS011;204;48.942;9.256;2023-07-28T05:44:32;7.30;;;6.53;;
434;SDS011;204;48.942;9.256;2023-07-28T05:46:58;6.70;;;6.30;;
434;SDS011;204;48.942;9.256;2023-07-28T05:49:24;8.50;;;6.40;;
434;SDS011;204;48.942;9.256;2023-07-28T05:51:49;5.20;;;4.90;;
434;SDS011;204;48.942;9.256;2023-07-28T05:54:15;6.47;;;5.70;;
434;SDS011;204;48.942;9.256;2023-07-28T05:56:41;5.90;;;5.60;;
434;SDS011;204;48.942;9.256;2023-07-28T05:59:07;5.73;;;5.23;;
434;SDS011;204;48.942;9.256;2023-07-28T06:01:33;6.63;;;5.37;;
434;SDS011;204;48.942;9.256;2023-07-28T06:03:59;10.17;;;6.93;;
434;SDS011;204;48.942;9.256;2023-07-28T06:06:25;8.90;;;6.30;;
434;SDS011;204;48.942;9.256;2023-07-28T06:08:52;7.00;;;5.30;;
434;SDS011;204;48.942;9.256;2023-07-28T06:11:18;7.10;;;5.60;;
434;SDS011;204;48.942;9.256;2023-07-28T06:13:43;7.30;;;6.40;;
434;SDS011;204;48.942;9.256;2023-07-28T06:16:11;5.83;;;5.17;;
434;SDS011;204;48.942;9.256;2023-07-28T06:18:36;8.70;;;7.40;;
434;SDS011;204;48.942;9.256;2023-07-28T06:21:02;6.10;;;5.83;;
434;SDS011;204;48.942;9.256;2023-07-28T06:23:28;6.20;;;5.60;;
434;SDS011;204;48.942;9.256;2023-07-28T06:25:53;6.80;;;6.00;;
434;SDS011;204;48.942;9.256;2023-07-28T06:28:20;9.23;;;5.70;;
434;SDS011;204;48.942;9.256;2023-07-28T06:30:46;5.67;;;5.40;;
434;SDS011;204;48.942;9.256;2023-07-28T06:33:11;6.60;;;5.60;;
434;SDS011;204;48.942;9.256;2023-07-28T06:35:37;6.20;;;5.70;;
434;SDS011;204;48.942;9.256;2023-07-28T06:38:03;5.87;;;5.47;;
434;SDS011;204;48.942;9.256;2023-07-28T06:40:29;5.77;;;5.10;;
434;SDS011;204;48.942;9.256;2023-07-28T06:42:55;5.40;;;5.10;;
434;SDS011;204;48.942;9.256;2023-07-28T06:45:21;5.70;;;5.40;;
434;SDS011;204;48.942;9.256;2023-07-28T06:47:46;5.57;;;5.20;;
434;SDS011;204;48.942;9.256;2023-07-28T06:50:12;6.23;;;5.60;;
434;SDS011;204;48.942;9.256;2023-07-28T06:52:38;6.03;;;5.73;;
434;SDS011;204;48.942;9.256;2023-07-28T06:55:04;4.73;;;4.10;;
434;SDS011;204;48.942;9.256;2023-07-28T06:57:30;3.90;;;3.70;;
434;SDS011;204;48.942;9.256;2023-07-28T06:59:56;3.00;;;2.80;;
434;SDS011;204;48.942;9.256;2023-07-28T07:02:22;3.73;;;3.03;;
434;SDS011;204;48.942;9.256;2023-07-28T07:04:48;2.97;;;2.77;;
434;SDS011;204;48.942;9.256;2023-07-28T07:07:14;3.20;;;3.00;;
434;SDS011;204;48.942;9.256;2023-07-28T07:09:39;4.73;;;3.30;;
434;SDS011;204;48.942;9.256;2023-07-28T07:12:06;4.67;;;3.00;;
434;SDS011;204;48.942;9.256;2023-07-28T07:14:35;2.77;;;2.57;;
434;SDS011;204;48.942;9.256;2023-07-28T07:17:01;3.03;;;2.83;;
434;SDS011;204;48.942;9.256;2023-07-28T07:19:27;3.50;;;2.90;;
434;SDS011;204;48.942;9.256;2023-07-28T07:21:54;2.30;;;2.17;;
434;SDS011;204;48.942;9.256;2023-07-28T07:24:20;3.43;;;2.73;;
434;SDS011;204;48.942;9.256;2023-07-28T07:26:46;2.40;;;2.20;;
434;SDS011;204;48.942;9.256;2023-07-28T07:29:11;3.03;;;2.23;;
434;SDS011;204;48.942;9.256;2023-07-28T07:31:37;2.50;;;2.30;;
434;SDS011;204;48.942;9.256;2023-07-28T07:34:03;2.23;;;2.07;;
434;SDS011;204;48.942;9.256;2023-07-28T07:36:29;1.90;;;1.80;;
434;SDS011;204;48.942;9.256;2023-07-28T07:38:55;2.30;;;2.13;;
434;SDS011;204;48.942;9.256;2023-07-28T07:41:21;2.70;;;2.00;;
434;SDS011;204;48.942;9.256;2023-07-28T07:43:48;2.40;;;2.20;;
434;SDS011;204;48.942;9.256;2023-07-28T07:46:14;1.77;;;1.67;;
434;SDS011;204;48.942;9.256;2023-07-28T07:48:41;1.63;;;1.30;;
434;SDS011;204;48.942;9.256;2023-07-28T07:51:07;1.80;;;1.73;;
434;SDS011;204;48.942;9.256;2023-07-28T07:53:33;1.63;;;1.53;;
434;SDS011;204;48.942;9.256;2023-07-28T07:55:59;3.70;;;1.87;;
434;SDS011;204;48.942;9.256;2023-07-28T07:58:24;1.33;;;1.30;;
434;SDS011;204;48.942;9.256;2023-07-28T08:00:50;2.90;;;1.60;;
434;SDS011;204;48.942;9.256;2023-07-28T08:03:16;1.40;;;1.27;;
434;SDS011;204;48.942;9.256;2023-07-28T08:05:41;1.90;;;1.73;;
434;SDS011;204;48.942;9.256;2023-07-28T08:08:07;1.50;;;1.40;;
434;SDS011;204;48.942;9.256;2023-07-28T08:10:33;1.70;;;1.60;;
434;SDS011;204;48.942;9.256;2023-07-28T08:12:59;1.50;;;1.40;;
434;SDS011;204;48.942;9.256;2023-07-28T08:15:25;2.47;;;1.50;;
434;SDS011;204;48.942;9.256;2023-07-28T08:17:51;1.67;;;1.57;;
434;SDS011;204;48.942;9.256;2023-07-28T08:20:17;1.97;;;1.50;;
434;SDS011;204;48.942;9.256;2023-07-28T08:22:43;1.67;;;1.57;;
434;SDS011;204;48.942;9.256;2023-07-28T08:25:09;3.13;;;1.90;;
434;SDS011;204;48.942;9.256;2023-07-28T08:27:35;1.60;;;1.50;;
434;SDS011;204;48.942;9.256;2023-07-28T08:30:01;1.80;;;1.70;;
434;SDS011;204;48.942;9.256;2023-07-28T08:32:28;1.40;;;1.40;;
434;SDS011;204;48.942;9.256;2023-07-28T08:34:53;1.83;;;1.53;;
434;SDS011;204;48.942;9.256;2023-07-28T08:37:19;1.87;;;1.60;;
434;SDS011;204;48.942;9.256;2023-07-28T08:39:45;3.30;;;1.60;;
434;SDS011;204;48.942;9.256;2023-07-28T08:42:10;1.70;;;1.60;;
434;SDS011;204;48.942;9.256;2023-07-28T08:44:36;1.80;;;1.40;;
434;SDS011;204;48.942;9.256;2023-07-28T08:47:02;1.80;;;1.70;;
434;SDS011;204;48.942;9.256;2023-07-28T08:49:32;1.60;;;1.50;;
434;SDS011;204;48.942;9.256;2023-07-28T08:52:00;1.87;;;1.77;;
434;SDS011;204;48.942;9.256;2023-07-28T08:54:27;1.47;;;1.40;;
434;SDS011;204;48.942;9.256;2023-07-28T08:56:53;1.50;;;1.40;;
434;SDS011;204;48.942;9.256;2023-07-28T08:59:22;1.83;;;1.47;;
434;SDS011;204;48.942;9.256;2023-07-28T09:01:52;3.77;;;1.90;;
434;SDS011;204;48.942;9.256;2023-07-28T09:04:19;2.10;;;1.40;;
434;SDS011;204;48.942;9.256;2023-07-28T09:06:47;1.27;;;1.13;;
434;SDS011;204;48.942;9.256;2023-07-28T09:09:14;1.30;;;1.10;;
434;SDS011;204;48.942;9.256;2023-07-28T09:11:47;2.40;;;1.67;;
434;SDS011;204;48.942;9.256;2023-07-28T09:14:18;2.20;;;1.83;;
434;SDS011;204;48.942;9.256;2023-07-28T09:16:44;1.40;;;1.20;;
434;SDS011;204;48.942;9.256;2023-07-28T09:19:11;2.13;;;1.87;;
434;SDS011;204;48.942;9.256;2023-07-28T09:21:37;1.53;;;1.40;;
434;SDS011;204;48.942;9.256;2023-07-28T09:24:04;1.37;;;1.37;;
434;SDS011;204;48.942;9.256;2023-07-28T09:26:41;3.50;;;1.77;;
434;SDS011;204;48.942;9.256;2023-07-28T09:31:36;1.30;;;1.20;;
434;SDS011;204;48.942;9.256;2023-07-28T09:34:02;1.97;;;1.60;;
434;SDS011;204;48.942;9.256;2023-07-28T09:36:27;1.50;;;1.40;;
434;SDS011;204;48.942;9.256;2023-07-28T09:38:54;1.90;;;1.80;;
434;SDS011;204;48.942;9.256;2023-07-28T09:41:20;1.70;;;1.67;;
434;SDS011;204;48.942;9.256;2023-07-28T09:43:47;2.10;;;1.13;;
434;SDS011;204;48.942;9.256;2023-07-28T09:46:14;1.67;;;1.47;;
434;SDS011;204;48.942;9.256;2023-07-28T09:48:44;1.63;;;1.40;;
434;SDS011;204;48.942;9.256;2023-07-28T09:51:17;3.13;;;1.10;;
434;SDS011;204;48.942;9.256;2023-07-28T09:53:46;2.57;;;2.20;;
434;SDS011;204;48.942;9.256;2023-07-28T09:56:18;1.80;;;1.40;;
434;SDS011;204;48.942;9.256;2023-07-28T09:58:50;2.90;;;1.47;;
434;SDS011;204;48.942;9.256;2023-07-28T10:01:17;2.23;;;1.63;;
434;SDS011;204;48.942;9.256;2023-07-28T10:03:44;1.40;;;0.90;;
434;SDS011;204;48.942;9.256;2023-07-28T10:06:10;1.40;;;1.30;;
434;SDS011;204;48.942;9.256;2023-07-28T10:08:37;1.90;;;1.70;;
434;SDS011;204;48.942;9.256;2023-07-28T10:11:03;1.20;;;1.10;;
434;SDS011;204;48.942;9.256;2023-07-28T10:13:33;1.70;;;1.50;;
434;SDS011;204;48.942;9.256;2023-07-28T10:16:07;1.37;;;1.27;;
434;SDS011;204;48.942;9.256;2023-07-28T10:18:34;2.10;;;1.33;;
434;SDS011;204;48.942;9.256;2023-07-28T10:21:04;1.73;;;1.60;;
434;SDS011;204;48.942;9.256;2023-07-28T10:23:33;1.53;;;1.50;;
434;SDS011;204;48.942;9.256;2023-07-28T10:25:59;1.67;;;1.60;;
434;SDS011;204;48.942;9.256;2023-07-28T10:28:27;1.43;;;1.03;;
434;SDS011;204;48.942;9.256;2023-07-28T10:30:56;1.43;;;1.23;;
434;SDS011;204;48.942;9.256;2023-07-28T10:33:36;2.50;;;1.20;;
434;SDS011;204;48.942;9.256;2023-07-28T10:38:47;1.13;;;1.03;;
434;SDS011;204;48.942;9.256;2023-07-28T10:41:25;1.90;;;1.23;;
434;SDS011;204;48.942;9.256;2023-07-28T10:43:50;1.40;;;1.17;;
434;SDS011;204;48.942;9.256;2023-07-28T10:46:17;1.10;;;1.10;;
434;SDS011;204;48.942;9.256;2023-07-28T10:48:46;1.43;;;1.40;;
434;SDS011;204;48.942;9.256;2023-07-28T10:51:23;1.33;;;1.17;;
434;SDS011;204;48.942;9.256;2023-07-28T10:53:56;2.20;;;1.10;;
434;SDS011;204;48.942;9.256;2023-07-28T10:56:22;3.37;;;1.00;;
434;SDS011;204;48.942;9.256;2023-07-28T10:59:01;2.57;;;1.30;;
434;SDS011;204;48.942;9.256;2023-07-28T11:01:32;1.03;;;0.97;;
434;SDS011;204;48.942;9.256;2023-07-28T11:04:06;1.33;;;1.23;;
434;SDS011;204;48.942;9.256;2023-07-28T11:06:31;0.97;;;0.90;;
434;SDS011;204;48.942;9.256;2023-07-28T11:08:57;1.10;;;1.00;;
434;SDS011;204;48.942;9.256;2023-07-28T11:11:23;1.47;;;1.20;;
434;SDS011;204;48.942;9.256;2023-07-28T11:13:48;1.60;;;1.50;;
434;SDS011;204;48.942;9.256;2023-07-28T11:16:14;1.47;;;1.00;;
434;SDS011;204;48.942;9.256;2023-07-28T11:18:40;1.00;;;0.90;;
434;SDS011;204;48.942;9.256;2023-07-28T11:21:05;1.60;;;1.27;;
434;SDS011;204;48.942;9.256;2023-07-28T11:23:33;1.50;;;1.43;;
434;SDS011;204;48.942;9.256;2023-07-28T11:26:09;3.30;;;3.10;;
434;SDS011;204;48.942;9.256;2023-07-28T11:28:36;3.60;;;3.40;;
434;SDS011;204;48.942;9.256;2023-07-28T11:31:03;1.33;;;1.10;;
434;SDS011;204;48.942;9.256;2023-07-28T11:33:28;1.10;;;1.00;;
434;SDS011;204;48.942;9.256;2023-07-28T11:35:54;2.27;;;1.47;;
434;SDS011;204;48.942;9.256;2023-07-28T11:38:19;1.40;;;1.10;;
434;SDS011;204;48.942;9.256;2023-07-28T11:40:45;1.23;;;1.20;;
434;SDS011;204;48.942;9.256;2023-07-28T11:43:11;1.27;;;1.20;;
434;SDS011;204;48.942;9.256;2023-07-28T11:45:37;1.97;;;1.20;;
434;SDS011;204;48.942;9.256;2023-07-28T11:48:06;1.03;;;0.93;;
434;SDS011;204;48.942;9.256;2023-07-28T11:50:37;1.57;;;1.10;;
434;SDS011;204;48.942;9.256;2023-07-28T11:53:04;1.07;;;1.03;;
434;SDS011;204;48.942;9.256;2023-07-28T11:55:34;1.20;;;1.10;;
434;SDS011;204;48.942;9.256;2023-07-28T11:58:01;1.37;;;1.00;;
434;SDS011;204;48.942;9.256;2023-07-28T12:00:33;2.00;;;1.30;;
434;SDS011;204;48.942;9.256;2023-07-28T12:03:18;1.77;;;1.67;;
434;SDS011;204;48.942;9.256;2023-07-28T12:05:58;1.37;;;1.27;;
434;SDS011;204;48.942;9.256;2023-07-28T12:08:38;2.90;;;1.20;;
434;SDS011;204;48.942;9.256;2023-07-28T12:11:04;1.00;;;0.90;;
434;SDS011;204;48.942;9.256;2023-07-28T12:13:31;6.83;;;1.30;;
434;SDS011;204;48.942;9.256;2023-07-28T12:15:57;1.70;;;1.60;;
434;SDS011;204;48.942;9.256;2023-07-28T12:18:22;1.50;;;1.40;;
434;SDS011;204;48.942;9.256;2023-07-28T12:20:54;1.90;;;1.47;;
434;SDS011;204;48.942;9.256;2023-07-28T12:23:21;2.93;;;1.43;;
434;SDS011;204;48.942;9.256;2023-07-28T12:25:48;3.53;;;1.50;;
434;SDS011;204;48.942;9.256;2023-07-28T12:28:15;1.77;;;1.70;;
434;SDS011;204;48.942;9.256;2023-07-28T12:30:41;4.03;;;3.83;;
434;SDS011;204;48.942;9.256;2023-07-28T12:33:08;1.90;;;1.80;;
434;SDS011;204;48.942;9.256;2023-07-28T12:35:34;2.60;;;2.33;;
434;SDS011;204;48.942;9.256;2023-07-28T12:38:04;4.57;;;2.40;;
434;SDS011;204;48.942;9.256;2023-07-28T12:40:30;3.77;;;2.20;;
434;SDS011;204;48.942;9.256;2023-07-28T12:42:57;3.20;;;2.30;;
434;SDS011;204;48.942;9.256;2023-07-28T12:45:24;2.63;;;2.43;;
434;SDS011;204;48.942;9.256;2023-07-28T12:47:51;2.40;;;2.20;;
434;SDS011;204;48.942;9.256;2023-07-28T12:50:20;2.80;;;1.87;;
434;SDS011;204;48.942;9.256;2023-07-28T12:52:49;2.03;;;1.90;;
434;SDS011;204;48.942;9.256;2023-07-28T12:55:16;3.30;;;2.00;;
434;SDS011;204;48.942;9.256;2023-07-28T12:57:42;2.50;;;2.30;;
434;SDS011;204;48.942;9.256;2023-07-28T13:00:09;3.60;;;2.20;;
434;SDS011;204;48.942;9.256;2023-07-28T13:02:39;2.07;;;1.80;;
434;SDS011;204;48.942;9.256;2023-07-28T13:05:06;8.23;;;6.40;;
434;SDS011;204;48.942;9.256;2023-07-28T13:07:32;4.40;;;4.10;;
434;SDS011;204;48.942;9.256;2023-07-28T13:09:57;3.23;;;2.27;;
434;SDS011;204;48.942;9.256;2023-07-28T13:12:23;3.73;;;2.27;;
434;SDS011;204;48.942;9.256;2023-07-28T13:14:49;3.47;;;2.43;;
434;SDS011;204;48.942;9.256;2023-07-28T13:17:15;3.37;;;3.13;;
434;SDS011;204;48.942;9.256;2023-07-28T13:19:41;3.00;;;2.80;;
434;SDS011;204;48.942;9.256;2023-07-28T13:22:07;2.53;;;2.40;;
434;SDS011;204;48.942;9.256;2023-07-28T13:24:32;3.17;;;2.97;;
434;SDS011;204;48.942;9.256;2023-07-28T13:26:58;2.53;;;2.33;;
434;SDS011;204;48.942;9.256;2023-07-28T13:29:23;3.10;;;2.37;;
434;SDS011;204;48.942;9.256;2023-07-28T13:31:49;5.57;;;4.00;;
434;SDS011;204;48.942;9.256;2023-07-28T13:34:15;3.67;;;2.67;;
434;SDS011;204;48.942;9.256;2023-07-28T13:36:40;4.73;;;2.47;;
434;SDS011;204;48.942;9.256;2023-07-28T13:39:08;3.47;;;3.27;;
434;SDS011;204;48.942;9.256;2023-07-28T13:41:34;2.57;;;2.37;;
434;SDS011;204;48.942;9.256;2023-07-28T13:43:59;2.70;;;2.53;;
434;SDS011;204;48.942;9.256;2023-07-28T13:46:25;3.13;;;2.60;;
434;SDS011;204;48.942;9.256;2023-07-28T13:48:51;3.80;;;3.20;;
434;SDS011;204;48.942;9.256;2023-07-28T13:51:17;8.27;;;7.27;;
434;SDS011;204;48.942;9.256;2023-07-28T13:53:42;2.87;;;2.77;;
434;SDS011;204;48.942;9.256;2023-07-28T13:56:08;5.30;;;4.53;;
434;SDS011;204;48.942;9.256;2023-07-28T13:58:33;2.47;;;2.20;;
434;SDS011;204;48.942;9.256;2023-07-28T14:00:59;3.60;;;3.30;;
434;SDS011;204;48.942;9.256;2023-07-28T14:03:24;2.77;;;2.60;;
434;SDS011;204;48.942;9.256;2023-07-28T14:05:51;4.10;;;3.00;;
434;SDS011;204;48.942;9.256;2023-07-28T14:08:17;4.10;;;3.90;;
434;SDS011;204;48.942;9.256;2023-07-28T14:10:46;3.97;;;3.10;;
434;SDS011;204;48.942;9.256;2023-07-28T14:13:11;4.57;;;3.10;;
434;SDS011;204;48.942;9.256;2023-07-28T14:15:38;3.07;;;2.90;;
434;SDS011;204;48.942;9.256;2023-07-28T14:18:03;3.50;;;3.20;;
434;SDS011;204;48.942;9.256;2023-07-28T14:20:29;3.77;;;3.30;;
434;SDS011;204;48.942;9.256;2023-07-28T14:22:55;3.43;;;3.23;;
434;SDS011;204;48.942;9.256;2023-07-28T14:25:20;4.77;;;3.43;;
434;SDS011;204;48.942;9.256;2023-07-28T14:27:46;3.90;;;3.60;;
434;SDS011;204;48.942;9.256;2023-07-28T14:30:11;5.83;;;4.27;;
434;SDS011;204;48.942;9.256;2023-07-28T14:32:37;5.60;;;4.07;;
434;SDS011;204;48.942;9.256;2023-07-28T14:35:03;3.90;;;3.70;;
434;SDS011;204;48.942;9.256;2023-07-28T14:37:28;5.10;;;3.83;;
434;SDS011;204;48.942;9.256;2023-07-28T14:39:54;3.33;;;3.20;;
434;SDS011;204;48.942;9.256;2023-07-28T14:42:19;6.40;;;3.00;;
434;SDS011;204;48.942;9.256;2023-07-28T14:44:45;6.53;;;4.10;;
434;SDS011;204;48.942;9.256;2023-07-28T14:47:11;4.23;;;3.33;;
434;SDS011;204;48.942;9.256;2023-07-28T14:49:36;6.83;;;3.40;;
434;SDS011;204;48.942;9.256;2023-07-28T14:52:02;3.90;;;3.60;;
434;SDS011;204;48.942;9.256;2023-07-28T14:54:27;4.07;;;3.87;;
434;SDS011;204;48.942;9.256;2023-07-28T14:56:53;4.83;;;4.13;;
434;SDS011;204;48.942;9.256;2023-07-28T14:59:18;5.03;;;3.80;;
434;SDS011;204;48.942;9.256;2023-07-28T15:01:45;3.30;;;3.10;;
434;SDS011;204;48.942;9.256;2023-07-28T15:04:11;5.97;;;4.53;;
434;SDS011;204;48.942;9.256;2023-07-28T15:06:38;7.47;;;4.40;;
434;SDS011;204;48.942;9.256;2023-07-28T15:09:04;4.37;;;4.00;;
434;SDS011;204;48.942;9.256;2023-07-28T15:11:30;4.20;;;3.70;;
434;SDS011;204;48.942;9.256;2023-07-28T15:13:56;5.80;;;4.97;;
434;SDS011;204;48.942;9.256;2023-07-28T15:16:22;5.80;;;4.10;;
434;SDS011;204;48.942;9.256;2023-07-28T15:18:47;4.93;;;4.40;;
434;SDS011;204;48.942;9.256;2023-07-28T15:21:13;4.70;;;4.40;;
434;SDS011;204;48.942;9.256;2023-07-28T15:23:38;5.47;;;4.07;;
434;SDS011;204;48.942;9.256;2023-07-28T15:26:04;4.27;;;4.00;;
434;SDS011;204;48.942;9.256;2023-07-28T15:28:30;4.63;;;4.33;;
434;SDS011;204;48.942;9.256;2023-07-28T15:30:55;6.60;;;4.13;;
434;SDS011;204;48.942;9.256;2023-07-28T15:33:21;3.73;;;3.53;;
434;SDS011;204;48.942;9.256;2023-07-28T15:35:50;4.57;;;4.27;;
434;SDS011;204;48.942;9.256;2023-07-28T15:38:15;4.70;;;4.40;;
434;SDS011;204;48.942;9.256;2023-07-28T15:40:41;7.17;;;4.30;;
434;SDS011;204;48.942;9.256;2023-07-28T15:43:07;3.93;;;3.73;;
434;SDS011;204;48.942;9.256;2023-07-28T15:45:32;6.27;;;4.53;;
434;SDS011;204;48.942;9.256;2023-07-28T15:47:58;4.03;;;3.83;;